createdAt,value
2018-12-07T00:02:12.144Z,21.90
2018-12-07T00:04:39.211Z,22.00
2018-12-07T00:07:06.249Z,22.00
2018-12-07T00:09:33.279Z,22.00
2018-12-07T00:12:00.322Z,22.10
2018-12-07T00:14:27.370Z,22.10
2018-12-07T00:16:54.452Z,22.10
2018-12-07T00:19:21.490Z,22.10
2018-12-07T00:21:48.540Z,22.10
2018-12-07T00:24:15.616Z,22.10
2018-12-07T00:26:42.629Z,22.10
2018-12-07T00:29:09.707Z,22.10
2018-12-07T00:31:36.729Z,22.10
2018-12-07T00:34:03.775Z,22.20
2018-12-07T00:36:30.825Z,22.20
2018-12-07T00:38:57.872Z,22.20
2018-12-07T00:41:24.964Z,22.20
2018-12-07T00:43:51.969Z,22.20
2018-12-07T00:46:19.041Z,22.20
2018-12-07T00:48:46.177Z,22.20
2018-12-07T00:51:13.194Z,22.20
2018-12-07T00:53:40.258Z,22.20
2018-12-07T00:56:07.319Z,22.20
2018-12-07T00:58:34.364Z,22.20
2018-12-07T01:01:01.384Z,22.20
2018-12-07T01:03:28.462Z,22.20
2018-12-07T01:05:55.514Z,22.20
2018-12-07T01:08:22.584Z,22.20
2018-12-07T01:10:49.705Z,22.30
2018-12-07T01:13:16.696Z,22.30
2018-12-07T01:15:43.787Z,22.20
2018-12-07T01:18:10.953Z,22.30
2018-12-07T01:20:37.954Z,22.30
2018-12-07T01:23:04.999Z,22.30
2018-12-07T01:25:32.082Z,22.30
2018-12-07T01:27:59.139Z,22.30
2018-12-07T01:30:26.192Z,22.30
2018-12-07T01:32:53.210Z,22.30
2018-12-07T01:35:20.208Z,22.30
2018-12-07T01:37:47.312Z,22.30
2018-12-07T01:40:14.367Z,22.30
2018-12-07T01:42:41.409Z,22.30
2018-12-07T01:45:08.477Z,22.30
2018-12-07T01:47:37.482Z,22.30
2018-12-07T01:50:04.600Z,22.30
2018-12-07T01:52:31.677Z,22.30
2018-12-07T01:54:58.814Z,22.30
2018-12-07T01:57:25.848Z,22.30
2018-12-07T01:59:52.909Z,22.40
2018-12-07T02:02:19.972Z,22.40
2018-12-07T02:04:46.983Z,22.40
2018-12-07T02:07:29.821Z,22.40
2018-12-07T02:09:57.269Z,22.40
2018-12-07T02:12:24.286Z,22.40
2018-12-07T02:14:51.352Z,22.40
2018-12-07T02:17:18.415Z,22.40
2018-12-07T02:19:45.455Z,22.40
2018-12-07T02:22:12.615Z,22.40
2018-12-07T02:24:39.640Z,22.40
2018-12-07T02:27:06.675Z,22.40
2018-12-07T02:29:33.720Z,22.40
2018-12-07T02:32:00.853Z,22.40
2018-12-07T02:34:28.062Z,22.40
2018-12-07T02:36:55.085Z,22.40
2018-12-07T02:39:22.139Z,22.40
2018-12-07T02:41:49.292Z,22.40
2018-12-07T02:44:16.314Z,22.40
2018-12-07T02:46:43.412Z,22.40
2018-12-07T02:49:10.454Z,22.40
2018-12-07T02:51:37.476Z,22.40
2018-12-07T02:54:04.523Z,22.40
2018-12-07T02:56:31.580Z,22.40
2018-12-07T02:58:58.609Z,22.40
2018-12-07T03:01:25.678Z,22.40
2018-12-07T03:03:52.791Z,22.40
2018-12-07T03:06:19.843Z,22.40
2018-12-07T03:08:47.013Z,22.40
2018-12-07T03:11:14.067Z,22.40
2018-12-07T03:13:41.095Z,22.40
2018-12-07T03:16:08.153Z,22.40
2018-12-07T03:18:35.189Z,22.40
2018-12-07T03:21:02.279Z,22.40
2018-12-07T03:23:29.400Z,22.40
2018-12-07T03:25:56.469Z,22.40
2018-12-07T03:28:23.593Z,22.40
2018-12-07T03:30:50.648Z,22.40
2018-12-07T03:33:17.646Z,22.40
2018-12-07T03:35:44.866Z,22.40
2018-12-07T03:38:11.883Z,22.50
2018-12-07T03:40:38.977Z,22.40
2018-12-07T03:43:06.082Z,22.40
2018-12-07T03:45:33.182Z,22.40
2018-12-07T03:48:00.291Z,22.40
2018-12-07T03:50:28.437Z,22.40
2018-12-07T03:52:55.443Z,22.40
2018-12-07T03:55:22.531Z,22.40
2018-12-07T03:57:49.608Z,22.40
2018-12-07T04:00:16.614Z,22.40
2018-12-07T04:02:43.648Z,22.40
2018-12-07T04:05:10.734Z,22.40
2018-12-07T04:07:37.783Z,22.50
2018-12-07T04:10:04.825Z,22.50
2018-12-07T04:12:32.004Z,22.50
2018-12-07T04:14:59.016Z,22.50
2018-12-07T04:17:26.105Z,22.50
2018-12-07T04:19:53.169Z,22.50
2018-12-07T04:22:20.279Z,22.50
2018-12-07T04:24:47.304Z,22.50
2018-12-07T04:27:14.404Z,22.50
2018-12-07T04:29:41.518Z,22.50
2018-12-07T04:32:08.521Z,22.50
2018-12-07T04:34:35.617Z,22.50
2018-12-07T04:37:02.729Z,22.50
2018-12-07T04:39:29.836Z,22.50
2018-12-07T04:41:56.858Z,22.50
2018-12-07T04:44:24.032Z,22.50
2018-12-07T04:46:51.116Z,22.50
2018-12-07T04:49:18.141Z,22.50
2018-12-07T04:51:45.176Z,22.50
2018-12-07T04:54:12.304Z,22.50
2018-12-07T04:56:39.403Z,22.50
2018-12-07T04:59:06.506Z,22.50
2018-12-07T05:01:33.561Z,22.50
2018-12-07T05:04:00.576Z,22.50
2018-12-07T05:06:27.640Z,22.50
2018-12-07T05:08:54.679Z,22.50
2018-12-07T05:11:21.730Z,22.50
2018-12-07T05:13:48.809Z,22.50
2018-12-07T05:16:15.964Z,22.50
2018-12-07T05:18:43.001Z,22.50
2018-12-07T05:21:10.062Z,22.50
2018-12-07T05:23:37.169Z,22.50
2018-12-07T05:26:04.221Z,22.50
2018-12-07T05:28:31.288Z,22.50
2018-12-07T05:30:58.445Z,22.50
2018-12-07T05:33:25.461Z,22.50
2018-12-07T05:35:52.535Z,22.50
2018-12-07T05:38:19.691Z,22.50
2018-12-07T05:40:46.713Z,22.50
2018-12-07T05:43:13.748Z,22.50
2018-12-07T05:45:40.802Z,22.50
2018-12-07T05:48:07.815Z,22.50
2018-12-07T05:50:34.817Z,22.50
2018-12-07T05:53:02.071Z,22.60
2018-12-07T05:55:29.107Z,22.50
2018-12-07T05:57:56.143Z,22.50
2018-12-07T06:00:23.208Z,22.50
2018-12-07T06:02:50.361Z,22.60
2018-12-07T06:05:17.402Z,22.50
2018-12-07T06:07:44.481Z,22.50
2018-12-07T06:10:11.613Z,22.50
2018-12-07T06:12:38.621Z,22.50
2018-12-07T06:15:05.679Z,22.50
2018-12-07T06:17:32.729Z,22.50
2018-12-07T06:19:59.743Z,22.50
2018-12-07T06:22:26.790Z,22.60
2018-12-07T06:24:53.833Z,22.50
2018-12-07T06:27:20.955Z,22.60
2018-12-07T06:29:48.099Z,22.60
2018-12-07T06:32:15.130Z,22.60
2018-12-07T06:34:42.184Z,22.50
2018-12-07T06:37:09.320Z,22.60
2018-12-07T06:39:36.397Z,22.60
2018-12-07T06:42:03.444Z,22.60
2018-12-07T06:44:30.472Z,22.60
2018-12-07T06:46:57.477Z,22.70
2018-12-07T06:49:24.562Z,22.70
2018-12-07T06:51:51.560Z,22.70
2018-12-07T06:54:18.666Z,22.70
2018-12-07T06:56:45.824Z,22.70
2018-12-07T06:59:12.827Z,22.70
2018-12-07T07:01:39.835Z,22.70
2018-12-07T07:04:06.927Z,22.70
2018-12-07T07:06:34.006Z,22.70
2018-12-07T07:09:01.030Z,22.70
2018-12-07T07:11:28.087Z,22.70
2018-12-07T07:13:55.252Z,22.70
2018-12-07T07:16:23.232Z,22.70
2018-12-07T07:18:50.432Z,22.70
2018-12-07T07:21:17.510Z,22.70
2018-12-07T07:23:44.582Z,22.70
2018-12-07T07:26:11.612Z,22.70
2018-12-07T07:28:38.664Z,22.70
2018-12-07T07:31:05.698Z,22.70
2018-12-07T07:33:32.758Z,22.70
2018-12-07T07:35:59.875Z,22.70
2018-12-07T07:38:27.084Z,22.70
2018-12-07T07:40:54.205Z,22.70
2018-12-07T07:43:21.334Z,22.70
2018-12-07T07:45:48.388Z,22.70
2018-12-07T07:48:15.441Z,22.70
2018-12-07T07:50:42.607Z,22.70
2018-12-07T07:53:09.636Z,22.60
2018-12-07T07:55:36.626Z,22.60
2018-12-07T07:58:03.755Z,22.60
2018-12-07T08:00:30.784Z,22.60
2018-12-07T08:02:59.983Z,22.60
2018-12-07T08:05:26.946Z,22.60
2018-12-07T08:07:55.533Z,22.60
2018-12-07T08:10:22.822Z,22.60
2018-12-07T08:12:50.012Z,22.60
2018-12-07T08:15:17.052Z,22.60
2018-12-07T08:17:44.138Z,22.60
2018-12-07T08:20:11.254Z,22.50
2018-12-07T08:22:38.304Z,22.60
2018-12-07T08:25:05.344Z,22.50
2018-12-07T08:27:32.630Z,22.50
2018-12-07T08:29:59.644Z,22.60
2018-12-07T08:32:26.755Z,22.50
2018-12-07T08:34:53.938Z,22.50
2018-12-07T08:37:20.985Z,22.50
2018-12-07T08:39:48.036Z,22.50
2018-12-07T08:42:15.102Z,22.50
2018-12-07T08:44:42.137Z,22.50
2018-12-07T08:47:09.282Z,22.50
2018-12-07T08:49:42.170Z,22.50
2018-12-07T08:52:09.230Z,22.50
2018-12-07T08:54:36.273Z,22.50
2018-12-07T08:57:03.303Z,22.50
2018-12-07T08:59:30.358Z,22.50
2018-12-07T09:01:57.391Z,22.40
2018-12-07T09:04:24.458Z,22.50
2018-12-07T09:06:51.516Z,22.50
2018-12-07T09:09:18.540Z,22.40
2018-12-07T09:11:45.635Z,22.40
2018-12-07T09:14:12.650Z,22.40
2018-12-07T09:16:39.662Z,22.40
2018-12-07T09:19:06.705Z,22.40
2018-12-07T09:21:33.738Z,22.40
2018-12-07T09:24:00.830Z,22.40
2018-12-07T09:26:27.984Z,22.40
2018-12-07T09:28:55.008Z,22.40
2018-12-07T09:31:22.080Z,22.40
2018-12-07T09:33:49.245Z,22.40
2018-12-07T09:36:16.280Z,22.40
2018-12-07T09:38:43.352Z,22.40
2018-12-07T09:41:10.505Z,22.40
2018-12-07T09:43:37.758Z,22.40
2018-12-07T09:46:04.782Z,22.40
2018-12-07T09:48:31.833Z,22.40
2018-12-07T09:50:59.004Z,22.40
2018-12-07T09:53:26.031Z,22.40
2018-12-07T09:55:53.078Z,22.40
2018-12-07T09:58:20.111Z,22.40
2018-12-07T10:00:47.124Z,22.40
2018-12-07T10:03:14.146Z,22.40
2018-12-07T10:05:41.250Z,22.40
2018-12-07T10:08:08.301Z,22.40
2018-12-07T10:10:35.502Z,22.40
2018-12-07T10:13:07.898Z,22.40
2018-12-07T10:15:31.547Z,22.40
2018-12-07T10:17:58.636Z,22.40
2018-12-07T10:20:25.701Z,22.40
2018-12-07T10:22:52.741Z,22.40
2018-12-07T10:25:19.897Z,22.40
2018-12-07T10:27:46.935Z,22.40
2018-12-07T10:30:13.954Z,22.40
2018-12-07T10:32:41.023Z,22.40
2018-12-07T10:35:08.041Z,22.40
2018-12-07T10:37:35.125Z,22.40
2018-12-07T10:40:02.184Z,22.40
2018-12-07T10:42:29.317Z,22.50
2018-12-07T10:44:56.317Z,22.40
2018-12-07T10:47:23.365Z,22.40
2018-12-07T10:49:50.483Z,22.40
2018-12-07T10:52:17.510Z,22.40
2018-12-07T10:54:44.595Z,22.40
2018-12-07T10:57:11.616Z,22.50
2018-12-07T10:59:38.631Z,22.40
2018-12-07T11:02:11.496Z,22.40
2018-12-07T11:04:44.913Z,22.50
2018-12-07T11:07:17.844Z,22.50
2018-12-07T11:09:50.636Z,22.50
2018-12-07T11:12:23.524Z,22.40
2018-12-07T11:20:57.441Z,22.40
2018-12-07T11:23:30.416Z,22.40
2018-12-07T11:26:03.265Z,22.40
2018-12-07T11:28:35.915Z,22.40
2018-12-07T11:37:55.092Z,22.40
2018-12-07T11:40:22.537Z,22.50
2018-12-07T11:42:49.551Z,22.60
2018-12-07T11:45:16.640Z,22.60
2018-12-07T11:47:43.644Z,22.60
2018-12-07T11:50:10.651Z,22.60
2018-12-07T11:52:37.714Z,22.60
2018-12-07T11:55:04.984Z,22.70
2018-12-07T11:57:31.984Z,22.60
2018-12-07T11:59:59.026Z,22.60
2018-12-07T12:02:26.504Z,22.60
2018-12-07T12:04:53.977Z,22.60
2018-12-07T12:07:21.008Z,22.60
2018-12-07T12:09:48.160Z,22.60
2018-12-07T12:12:15.244Z,22.60
2018-12-07T12:14:42.274Z,22.60
2018-12-07T12:17:09.347Z,22.60
2018-12-07T12:19:36.381Z,22.60
2018-12-07T12:22:03.383Z,22.60
2018-12-07T12:24:30.488Z,22.60
2018-12-07T12:26:57.570Z,22.70
2018-12-07T12:29:24.586Z,22.70
2018-12-07T12:31:51.689Z,22.70
2018-12-07T12:34:18.807Z,22.70
2018-12-07T13:04:19.466Z,22.70
2018-12-07T13:06:46.512Z,22.70
2018-12-07T13:09:13.543Z,22.70
2018-12-07T13:11:40.585Z,22.70
2018-12-07T13:14:07.615Z,22.70
2018-12-07T13:16:34.689Z,22.70
2018-12-07T13:19:01.747Z,22.70
2018-12-07T13:21:28.753Z,22.70
2018-12-07T13:23:55.799Z,22.70
2018-12-07T13:26:22.829Z,22.70
2018-12-07T13:28:49.944Z,22.70
2018-12-07T13:31:16.965Z,22.70
2018-12-07T13:33:43.997Z,22.70
2018-12-07T13:36:11.081Z,22.70
2018-12-07T13:38:38.112Z,22.70
2018-12-07T13:41:05.581Z,22.70
2018-12-07T13:43:32.882Z,22.70
2018-12-07T13:46:00.087Z,22.70
2018-12-07T13:48:27.591Z,22.70
2018-12-07T13:50:54.908Z,22.70
2018-12-07T13:53:22.114Z,22.70
2018-12-07T13:55:49.422Z,22.70
2018-12-07T13:58:16.742Z,22.70
2018-12-07T14:00:43.817Z,22.60
2018-12-07T14:03:10.973Z,22.60
2018-12-07T14:05:38.296Z,22.60
2018-12-07T14:08:05.488Z,22.60
2018-12-07T14:10:32.674Z,22.60
2018-12-07T14:12:59.881Z,22.60
2018-12-07T14:15:27.196Z,22.60
2018-12-07T14:17:54.493Z,22.60
2018-12-07T14:20:21.606Z,22.60
2018-12-07T14:22:48.918Z,22.60
2018-12-07T14:25:16.021Z,22.60
2018-12-07T14:27:43.389Z,22.60
2018-12-07T14:30:10.570Z,22.60
2018-12-07T14:32:37.703Z,22.60
2018-12-07T14:35:05.052Z,22.60
2018-12-07T14:37:32.303Z,22.60
2018-12-07T14:39:59.543Z,22.60
2018-12-07T14:42:26.775Z,22.60
2018-12-07T14:44:53.917Z,22.60
2018-12-07T14:47:21.069Z,22.60
2018-12-07T14:49:48.197Z,22.60
2018-12-07T14:52:15.535Z,22.50
2018-12-07T14:54:42.737Z,22.60
2018-12-07T14:57:09.913Z,22.60
2018-12-07T14:59:37.084Z,22.60
2018-12-07T15:02:04.505Z,22.60
2018-12-07T15:04:31.842Z,22.60
2018-12-07T15:06:59.033Z,22.60
2018-12-07T15:09:26.331Z,22.60
2018-12-07T15:11:53.690Z,22.60
2018-12-07T15:14:20.991Z,22.60
2018-12-07T15:16:48.290Z,22.60
2018-12-07T15:19:15.417Z,22.60
2018-12-07T15:21:42.894Z,22.60
2018-12-07T15:24:10.150Z,22.60
2018-12-07T15:26:37.618Z,22.60
2018-12-07T15:29:04.846Z,22.60
2018-12-07T15:31:32.578Z,22.60
2018-12-07T15:33:59.852Z,22.60
2018-12-07T15:36:27.338Z,22.60
2018-12-07T15:38:54.513Z,22.60
2018-12-07T15:41:21.641Z,22.60
2018-12-07T15:43:48.738Z,22.60
2018-12-07T15:46:15.755Z,22.60
2018-12-07T15:48:42.812Z,22.60
2018-12-07T15:51:10.007Z,22.60
2018-12-07T15:53:37.296Z,22.60
2018-12-07T15:56:04.588Z,22.60
2018-12-07T15:58:31.960Z,22.60
2018-12-07T16:00:59.093Z,22.60
2018-12-07T16:03:26.318Z,22.60
2018-12-07T16:05:53.558Z,22.60
2018-12-07T16:08:24.933Z,22.60
2018-12-07T16:10:49.650Z,22.60
2018-12-07T16:13:16.961Z,22.60
2018-12-07T16:15:44.422Z,22.60
2018-12-07T16:18:11.834Z,22.60
2018-12-07T16:20:39.134Z,22.60
2018-12-07T16:23:06.501Z,22.60
2018-12-07T16:25:33.992Z,22.60
2018-12-07T16:28:01.134Z,22.60
2018-12-07T16:30:28.304Z,22.60
2018-12-07T16:32:55.450Z,22.60
2018-12-07T16:35:22.514Z,22.60
2018-12-07T16:37:49.625Z,22.60
2018-12-07T16:40:17.016Z,22.60
2018-12-07T16:42:44.265Z,22.60
2018-12-07T16:45:11.354Z,22.60
2018-12-07T16:47:38.610Z,22.60
2018-12-07T16:50:06.490Z,22.60
2018-12-07T16:52:33.777Z,22.60
2018-12-07T16:55:01.163Z,22.60
2018-12-07T16:57:28.524Z,22.60
2018-12-07T16:59:55.777Z,22.60
2018-12-07T17:02:22.823Z,22.60
2018-12-07T17:04:49.879Z,22.60
2018-12-07T17:07:17.030Z,22.60
2018-12-07T17:09:44.256Z,22.60
2018-12-07T17:12:11.593Z,22.60
2018-12-07T17:14:39.528Z,22.60
2018-12-07T17:17:06.864Z,22.70
2018-12-07T17:19:34.193Z,22.70
2018-12-07T17:22:01.677Z,22.80
2018-12-07T17:24:29.003Z,22.70
2018-12-07T17:26:56.043Z,22.80
2018-12-07T17:29:23.123Z,22.80
2018-12-07T17:31:50.371Z,22.80
2018-12-07T17:34:17.766Z,22.70
2018-12-07T17:36:45.071Z,22.70
2018-12-07T17:39:12.263Z,22.70
2018-12-07T17:41:39.417Z,22.70
2018-12-07T17:44:06.487Z,22.70
2018-12-07T17:46:33.845Z,22.70
2018-12-07T17:49:01.249Z,22.70
2018-12-07T17:51:28.651Z,22.80
2018-12-07T17:53:55.997Z,22.80
2018-12-07T17:56:23.147Z,22.70
2018-12-07T17:58:50.257Z,22.70
2018-12-07T18:01:17.320Z,22.70
2018-12-07T18:03:44.411Z,22.70
2018-12-07T18:06:11.503Z,22.70
2018-12-07T18:08:38.789Z,22.80
2018-12-07T18:11:06.344Z,22.80
2018-12-07T18:13:33.642Z,22.80
2018-12-07T18:16:01.013Z,22.80
2018-12-07T18:18:28.203Z,22.80
2018-12-07T18:20:55.558Z,22.80
2018-12-07T18:23:22.790Z,22.90
2018-12-07T18:25:50.253Z,22.90
2018-12-07T18:28:17.358Z,23.00
2018-12-07T18:30:44.543Z,22.90
2018-12-07T18:33:11.789Z,23.00
2018-12-07T18:35:39.127Z,23.00
2018-12-07T18:38:06.301Z,23.00
2018-12-07T18:40:33.406Z,23.00
2018-12-07T18:43:00.473Z,23.00
2018-12-07T18:45:27.673Z,23.10
2018-12-07T18:47:54.923Z,23.10
2018-12-07T18:50:22.284Z,23.10
2018-12-07T18:52:49.606Z,23.10
2018-12-07T18:55:16.815Z,23.10
2018-12-07T18:57:44.443Z,23.20
2018-12-07T19:00:11.707Z,23.20
2018-12-07T19:02:38.898Z,23.10
2018-12-07T19:05:06.320Z,23.10
2018-12-07T19:07:33.685Z,23.10
2018-12-07T19:10:01.188Z,23.10
2018-12-07T19:12:28.488Z,23.00
2018-12-07T19:14:55.675Z,23.00
2018-12-07T19:17:22.878Z,23.00
2018-12-07T19:19:50.237Z,22.90
2018-12-07T19:22:17.680Z,23.00
2018-12-07T19:24:44.895Z,22.90
2018-12-07T19:27:12.385Z,22.90
2018-12-07T19:29:39.593Z,22.90
2018-12-07T19:32:06.926Z,22.90
2018-12-07T19:34:34.381Z,22.90
2018-12-07T19:37:01.579Z,22.90
2018-12-07T19:39:28.717Z,22.90
2018-12-07T19:41:55.792Z,22.90
2018-12-07T19:44:23.551Z,22.90
2018-12-07T19:46:50.964Z,22.90
2018-12-07T19:49:18.691Z,22.90
2018-12-07T19:51:46.147Z,22.90
2018-12-07T19:54:13.442Z,22.90
2018-12-07T19:56:40.565Z,22.80
2018-12-07T19:59:07.691Z,22.90
2018-12-07T20:01:34.805Z,22.80
2018-12-07T20:04:01.989Z,22.90
2018-12-07T20:06:29.183Z,22.90
2018-12-07T20:08:56.775Z,22.90
2018-12-07T20:11:23.909Z,22.80
2018-12-07T20:13:50.961Z,22.90
2018-12-07T20:16:18.205Z,22.90
2018-12-07T20:18:45.426Z,22.80
2018-12-07T20:21:12.647Z,22.80
2018-12-07T20:23:39.725Z,22.80
2018-12-07T20:26:06.955Z,22.80
2018-12-07T20:28:34.480Z,22.80
2018-12-07T20:31:01.750Z,22.80
2018-12-07T20:33:28.942Z,22.80
2018-12-07T20:35:56.344Z,22.80
2018-12-07T20:38:23.512Z,22.80
2018-12-07T20:40:50.853Z,22.80
2018-12-07T20:43:18.365Z,22.80
2018-12-07T20:45:45.947Z,22.80
2018-12-07T20:48:13.381Z,22.80
2018-12-07T20:50:41.270Z,22.80
2018-12-07T20:53:08.346Z,22.80
2018-12-07T20:55:35.657Z,22.80
2018-12-07T20:58:03.923Z,22.80
2018-12-07T21:00:31.635Z,22.80
2018-12-07T21:02:58.754Z,22.80
2018-12-07T21:08:49.550Z,22.80
2018-12-07T21:11:16.834Z,22.80
2018-12-07T21:13:50.081Z,22.80
2018-12-07T21:19:29.130Z,22.70
2018-12-07T21:21:56.583Z,22.80
2018-12-07T21:24:23.833Z,22.80
2018-12-07T21:26:51.033Z,22.80
2018-12-07T21:29:18.310Z,22.80
2018-12-07T21:31:45.425Z,22.80
2018-12-07T21:34:19.810Z,22.70
2018-12-07T21:36:46.987Z,22.70
2018-12-07T21:39:16.606Z,22.70
2018-12-07T21:41:43.828Z,22.70
2018-12-07T21:44:10.983Z,22.80
2018-12-07T21:46:38.371Z,22.80
2018-12-07T21:49:05.604Z,22.80
2018-12-07T21:51:34.812Z,22.80
2018-12-07T21:54:02.183Z,22.80
2018-12-07T21:56:29.754Z,22.80
2018-12-07T21:58:57.024Z,22.70
2018-12-07T22:01:24.412Z,22.70
2018-12-07T22:03:51.723Z,22.70
2018-12-07T22:06:19.499Z,22.70
2018-12-07T22:08:46.793Z,22.70
2018-12-07T22:11:14.230Z,22.70
2018-12-07T22:13:41.355Z,22.70
2018-12-07T22:16:08.562Z,22.70
2018-12-07T22:18:35.647Z,22.70
2018-12-07T22:21:02.701Z,22.70
2018-12-07T22:23:30.050Z,22.70
2018-12-07T22:25:57.250Z,22.70
2018-12-07T22:28:24.377Z,22.70
2018-12-07T22:30:51.891Z,22.70
2018-12-07T22:33:19.004Z,22.70
2018-12-07T22:35:46.048Z,22.70
2018-12-07T22:38:13.392Z,22.70
2018-12-07T22:40:41.119Z,22.70
2018-12-07T22:43:08.637Z,22.70
2018-12-07T22:45:35.893Z,22.70
2018-12-07T22:48:03.273Z,22.70
2018-12-07T22:50:30.521Z,22.70
2018-12-07T22:52:57.565Z,22.70
2018-12-07T22:55:24.623Z,22.70
2018-12-07T22:57:51.650Z,22.70
2018-12-07T23:00:21.624Z,22.70
2018-12-07T23:02:48.631Z,22.70
2018-12-07T23:05:15.628Z,22.70
2018-12-07T23:07:42.707Z,22.70
2018-12-07T23:10:09.823Z,22.70
2018-12-07T23:12:36.831Z,22.70
2018-12-07T23:15:04.404Z,22.70
2018-12-07T23:17:31.482Z,22.70
2018-12-07T23:19:58.503Z,22.70
2018-12-07T23:22:25.498Z,22.70
2018-12-07T23:24:52.574Z,22.70
2018-12-07T23:27:19.582Z,22.70
2018-12-07T23:29:46.907Z,22.70
2018-12-07T23:32:13.994Z,22.70
2018-12-07T23:34:41.235Z,22.70
2018-12-07T23:37:08.314Z,22.70
2018-12-07T23:39:35.517Z,22.70
2018-12-07T23:42:02.521Z,22.70
2018-12-07T23:44:29.657Z,22.70
2018-12-07T23:46:56.791Z,22.70
2018-12-07T23:49:23.815Z,22.70
2018-12-07T23:51:52.071Z,22.70
2018-12-07T23:54:19.555Z,22.70
2018-12-07T23:56:46.624Z,22.70
2018-12-07T23:59:13.792Z,22.70
